Time;durP1;ratioP1;P1;durP2;ratioP2;P2;SDS_P1;SDS_P2;PMS_P1;PMS_P2;Temp;Humidity;BMP_temperature;BMP_pressure;BME280_temperature;BME280_humidity;BME280_pressure;Samples;Min_cycle;Max_cycle;Signal;HPM_P1;HPM_P2
2021/01/24 00:02:22;;;;;;;4.93;3.77;;;4.60;99.90;;;;;;5054818;28;20216;-63
2021/01/24 00:04:47;;;;;;;5.77;5.27;;;4.70;99.90;;;;;;5054611;28;20191;-63
2021/01/24 00:07:13;;;;;;;4.10;3.70;;;4.80;99.90;;;;;;5054286;28;20527;-64
2021/01/24 00:09:38;;;;;;;3.60;3.30;;;5.00;99.90;;;;;;5054598;28;20158;-63
2021/01/24 00:12:05;;;;;;;3.30;3.10;;;5.10;99.90;;;;;;5054254;28;20202;-64
2021/01/24 00:14:30;;;;;;;2.60;2.40;;;5.00;99.90;;;;;;5036324;28;20905;-64
2021/01/24 00:16:56;;;;;;;2.87;2.67;;;5.00;99.90;;;;;;5054059;28;20520;-64
2021/01/24 00:19:22;;;;;;;3.57;2.70;;;5.00;99.90;;;;;;5054229;28;20159;-63
2021/01/24 00:21:47;;;;;;;3.00;2.70;;;4.80;99.90;;;;;;5054139;28;20623;-63
2021/01/24 00:24:13;;;;;;;2.50;2.30;;;4.90;99.90;;;;;;5054148;28;20665;-63
2021/01/24 00:26:38;;;;;;;2.20;2.10;;;4.90;99.90;;;;;;5053934;28;20216;-64
2021/01/24 00:29:04;;;;;;;3.30;2.80;;;4.90;99.90;;;;;;5054017;28;20163;-63
2021/01/24 00:31:29;;;;;;;1.97;1.83;;;4.70;99.90;;;;;;5053957;28;20209;-63
2021/01/24 00:33:55;;;;;;;2.50;2.30;;;4.80;99.90;;;;;;5053958;28;20170;-63
2021/01/24 00:36:21;;;;;;;3.83;2.50;;;4.70;99.90;;;;;;5053770;28;20209;-64
2021/01/24 00:38:48;;;;;;;2.23;2.03;;;4.90;99.90;;;;;;5053973;28;20167;-63
2021/01/24 00:41:14;;;;;;;2.57;2.37;;;4.90;99.90;;;;;;5054579;28;20287;-64
2021/01/24 00:43:41;;;;;;;2.13;2.03;;;4.90;99.90;;;;;;5056261;28;20413;-63
2021/01/24 00:46:06;;;;;;;2.10;1.93;;;4.70;99.90;;;;;;5053928;28;20955;-63
2021/01/24 00:48:34;;;;;;;3.10;2.90;;;4.80;99.90;;;;;;5054783;28;20520;-63
2021/01/24 00:50:59;;;;;;;2.93;2.73;;;4.80;99.90;;;;;;5057304;28;20174;-63
2021/01/24 00:53:26;;;;;;;2.70;2.50;;;4.80;99.90;;;;;;5056586;28;20401;-63
2021/01/24 00:55:52;;;;;;;2.50;2.30;;;4.80;99.90;;;;;;5053726;28;20624;-63
2021/01/24 00:58:17;;;;;;;2.00;1.90;;;4.80;99.90;;;;;;5053907;28;20439;-63
2021/01/24 01:00:43;;;;;;;2.30;2.10;;;4.70;99.90;;;;;;5053674;28;20181;-63
2021/01/24 01:03:09;;;;;;;2.53;2.33;;;4.70;99.90;;;;;;5053292;28;20179;-63
2021/01/24 01:05:34;;;;;;;2.13;1.93;;;4.70;99.90;;;;;;5053563;28;20202;-63
2021/01/24 01:08:00;;;;;;;2.40;2.20;;;4.70;99.90;;;;;;5053204;28;20440;-64
2021/01/24 01:10:26;;;;;;;2.27;2.17;;;4.70;99.90;;;;;;5053479;28;20166;-64
2021/01/24 01:12:52;;;;;;;2.63;2.43;;;4.70;99.90;;;;;;5053474;28;20533;-63
2021/01/24 01:15:17;;;;;;;2.90;2.70;;;4.70;99.90;;;;;;5035350;28;20197;-63
2021/01/24 01:17:43;;;;;;;2.30;2.13;;;4.50;99.90;;;;;;5053055;28;20498;-64
2021/01/24 01:20:09;;;;;;;2.30;2.20;;;4.50;99.90;;;;;;5053214;28;20171;-64
2021/01/24 01:22:35;;;;;;;2.50;2.30;;;4.40;99.90;;;;;;5053054;28;20175;-63
2021/01/24 01:25:01;;;;;;;2.67;2.47;;;4.30;99.90;;;;;;5052101;28;20448;-65
2021/01/24 01:27:27;;;;;;;1.70;1.60;;;4.30;99.90;;;;;;5052815;28;20495;-64
2021/01/24 01:29:52;;;;;;;2.07;1.97;;;4.40;99.90;;;;;;5053032;28;20174;-63
2021/01/24 01:32:18;;;;;;;2.30;2.10;;;4.40;99.90;;;;;;5035187;28;20171;-63
2021/01/24 01:34:43;;;;;;;2.60;2.40;;;4.40;99.90;;;;;;5053227;28;20205;-63
2021/01/24 01:37:09;;;;;;;2.87;2.63;;;4.40;99.90;;;;;;5052866;28;20241;-64
2021/01/24 01:39:34;;;;;;;2.90;2.70;;;4.40;99.90;;;;;;5052921;28;20166;-63
2021/01/24 01:42:00;;;;;;;2.00;1.90;;;4.40;99.90;;;;;;5052878;28;20171;-64
2021/01/24 01:44:25;;;;;;;2.57;2.37;;;4.40;99.90;;;;;;5053272;28;20163;-64
2021/01/24 01:46:54;;;;;;;2.53;2.33;;;4.40;99.90;;;;;;5052704;28;20289;-64
2021/01/24 01:49:20;;;;;;;2.47;2.00;;;4.30;99.90;;;;;;5053307;28;20166;-63
2021/01/24 01:51:47;;;;;;;2.90;2.60;;;4.20;99.90;;;;;;5052792;28;20416;-63
2021/01/24 01:54:13;;;;;;;2.73;2.53;;;4.20;99.90;;;;;;5052971;28;20198;-64
2021/01/24 01:56:39;;;;;;;2.43;2.23;;;4.30;99.90;;;;;;5052914;28;20959;-64
2021/01/24 01:59:05;;;;;;;2.80;2.60;;;4.30;99.90;;;;;;5052695;28;20167;-63
2021/01/24 02:01:50;;;;;;;3.70;2.40;;;4.30;99.90;;;;;;5052661;28;20167;-63
2021/01/24 02:04:39;;;;;;;2.67;2.47;;;4.30;99.90;;;;;;5052968;28;20452;-63
2021/01/24 02:07:30;;;;;;;2.13;2.03;;;4.30;99.90;;;;;;5052055;28;20805;-64
2021/01/24 02:10:01;;;;;;;2.37;2.17;;;4.30;99.90;;;;;;5056370;28;20408;-64
2021/01/24 02:12:32;;;;;;;2.50;1.60;;;4.30;99.90;;;;;;5056849;28;20431;-63
2021/01/24 02:15:05;;;;;;;1.40;1.27;;;4.30;99.90;;;;;;5056511;28;20404;-63
2021/01/24 02:17:37;;;;;;;2.00;1.30;;;4.30;99.90;;;;;;5056468;28;20436;-64
2021/01/24 02:20:29;;;;;;;1.00;0.90;;;4.30;99.90;;;;;;5056677;28;20389;-64
2021/01/24 02:22:55;;;;;;;1.00;0.90;;;4.30;99.90;;;;;;5038513;28;20397;-63
2021/01/24 02:25:42;;;;;;;1.10;1.00;;;4.10;99.90;;;;;;5056306;28;20471;-63
2021/01/24 02:28:19;;;;;;;1.00;0.90;;;4.10;99.90;;;;;;5056542;28;20413;-64
2021/01/24 02:30:46;;;;;;;0.73;0.70;;;4.00;99.90;;;;;;5056571;28;20483;-63
2021/01/24 02:33:18;;;;;;;0.90;0.70;;;4.00;99.90;;;;;;5056215;28;20488;-63
2021/01/24 02:35:47;;;;;;;0.70;0.60;;;4.10;99.90;;;;;;5056145;28;20421;-63
2021/01/24 02:38:14;;;;;;;0.60;0.57;;;4.20;99.90;;;;;;5056095;28;20423;-64
2021/01/24 02:40:41;;;;;;;0.60;0.60;;;4.00;99.90;;;;;;5056403;28;20397;-63
2021/01/24 02:43:09;;;;;;;0.70;0.70;;;4.10;99.90;;;;;;5056341;28;20404;-64
2021/01/24 02:45:39;;;;;;;1.10;0.60;;;4.20;99.90;;;;;;5058418;28;20816;-64
2021/01/24 02:48:05;;;;;;;0.60;0.50;;;4.20;99.90;;;;;;5055997;28;20417;-64
2021/01/24 02:50:32;;;;;;;0.93;0.83;;;4.20;99.90;;;;;;5055967;28;20803;-64
2021/01/24 02:52:59;;;;;;;0.70;0.70;;;4.20;99.90;;;;;;5056232;28;20740;-63
2021/01/24 02:55:26;;;;;;;0.80;0.60;;;4.10;99.90;;;;;;5056048;28;20804;-63
2021/01/24 02:57:52;;;;;;;1.33;0.70;;;4.10;99.90;;;;;;5055754;28;21003;-63
2021/01/24 03:00:19;;;;;;;0.60;0.50;;;4.10;99.90;;;;;;5055710;28;20412;-63
2021/01/24 03:02:45;;;;;;;1.10;0.67;;;4.10;99.90;;;;;;5055718;28;20433;-63
2021/01/24 03:05:11;;;;;;;0.93;0.80;;;4.00;99.90;;;;;;5055524;28;20449;-63
2021/01/24 03:07:38;;;;;;;1.10;1.00;;;3.90;99.90;;;;;;5055069;28;20641;-64
2021/01/24 03:10:04;;;;;;;0.77;0.73;;;3.70;99.90;;;;;;5055467;28;20402;-64
2021/01/24 03:12:35;;;;;;;1.03;0.83;;;3.70;99.90;;;;;;5055483;28;20772;-64
2021/01/24 03:15:04;;;;;;;1.40;1.00;;;3.70;99.90;;;;;;5055519;28;20386;-63
2021/01/24 03:17:34;;;;;;;1.13;1.03;;;3.80;99.90;;;;;;5056549;28;20448;-63
2021/01/24 03:20:03;;;;;;;1.30;1.17;;;3.70;99.90;;;;;;5055438;28;20409;-64
2021/01/24 03:22:28;;;;;;;1.47;1.37;;;3.80;99.90;;;;;;5055251;28;20463;-63
2021/01/24 03:24:55;;;;;;;1.53;1.43;;;3.70;99.90;;;;;;5055447;28;20488;-63
2021/01/24 03:27:21;;;;;;;1.63;1.53;;;3.90;99.90;;;;;;5055428;28;20598;-64
2021/01/24 03:29:47;;;;;;;2.10;1.90;;;3.80;99.90;;;;;;5055714;28;20401;-64
2021/01/24 03:32:12;;;;;;;1.73;1.63;;;3.60;99.90;;;;;;5055164;28;20432;-64
2021/01/24 03:34:38;;;;;;;1.80;1.70;;;3.50;99.90;;;;;;5055346;28;20295;-64
2021/01/24 03:37:04;;;;;;;2.50;2.17;;;3.50;99.90;;;;;;5055148;28;20189;-63
2021/01/24 03:39:29;;;;;;;1.80;1.70;;;3.40;99.90;;;;;;5054955;28;20166;-63
2021/01/24 03:41:55;;;;;;;2.40;2.20;;;3.40;99.90;;;;;;5055203;28;20536;-63
2021/01/24 03:44:20;;;;;;;2.50;2.30;;;3.30;99.90;;;;;;5054943;28;20158;-64
2021/01/24 03:46:46;;;;;;;2.63;2.40;;;3.30;99.90;;;;;;5055262;28;20216;-64
2021/01/24 03:49:11;;;;;;;2.63;2.40;;;3.20;99.90;;;;;;5055050;28;20253;-63
2021/01/24 03:51:37;;;;;;;2.87;2.60;;;3.20;99.90;;;;;;5054713;28;20224;-63
2021/01/24 03:54:03;;;;;;;3.00;2.70;;;3.10;99.90;;;;;;5054919;28;20171;-63
2021/01/24 03:56:28;;;;;;;2.83;2.63;;;3.10;99.90;;;;;;5054937;28;20171;-63
2021/01/24 03:58:54;;;;;;;3.13;2.80;;;3.20;99.90;;;;;;5037273;28;20174;-63
2021/01/24 04:01:20;;;;;;;2.97;2.67;;;3.20;99.90;;;;;;5054840;28;20174;-63
2021/01/24 04:03:45;;;;;;;3.60;2.60;;;3.30;99.90;;;;;;5054539;28;20253;-63
2021/01/24 04:06:11;;;;;;;3.13;2.83;;;3.30;99.90;;;;;;5054465;28;20198;-63
2021/01/24 04:08:36;;;;;;;2.80;2.50;;;3.30;99.90;;;;;;5054666;28;20539;-63
2021/01/24 04:11:02;;;;;;;2.83;2.63;;;3.50;99.90;;;;;;5054693;28;20595;-63
2021/01/24 04:13:28;;;;;;;3.20;2.90;;;3.60;99.90;;;;;;5054382;28;20237;-63
2021/01/24 04:15:54;;;;;;;2.90;2.70;;;3.60;99.90;;;;;;5054313;28;20503;-63
2021/01/24 04:18:19;;;;;;;2.93;2.63;;;3.70;99.90;;;;;;5054056;28;20209;-64
2021/01/24 04:20:46;;;;;;;3.90;3.30;;;3.70;99.90;;;;;;5054806;28;20659;-64
2021/01/24 04:23:11;;;;;;;3.00;2.70;;;3.70;99.90;;;;;;5054153;28;20169;-64
2021/01/24 04:25:37;;;;;;;3.60;3.30;;;3.70;99.90;;;;;;5054327;28;20448;-63
2021/01/24 04:28:03;;;;;;;3.33;3.03;;;3.60;99.90;;;;;;5054031;28;20179;-63
2021/01/24 04:30:29;;;;;;;3.03;2.53;;;3.40;99.90;;;;;;5053668;28;20228;-63
2021/01/24 04:32:54;;;;;;;4.13;3.10;;;3.20;99.90;;;;;;5054321;28;20238;-63
2021/01/24 04:35:22;;;;;;;3.17;2.87;;;3.10;99.90;;;;;;5053944;28;20496;-63
2021/01/24 04:37:47;;;;;;;3.37;3.00;;;3.10;99.90;;;;;;5054238;28;20202;-63
2021/01/24 04:40:13;;;;;;;3.10;2.80;;;3.00;99.90;;;;;;5054065;28;20917;-63
2021/01/24 04:42:39;;;;;;;2.73;2.53;;;2.90;99.90;;;;;;5053938;28;20178;-63
2021/01/24 04:45:06;;;;;;;3.50;3.10;;;2.90;99.90;;;;;;5053789;28;20424;-63
2021/01/24 04:47:33;;;;;;;3.47;3.17;;;2.90;99.90;;;;;;5054034;28;20182;-65
2021/01/24 04:50:00;;;;;;;3.10;2.80;;;2.90;99.90;;;;;;5056395;28;20444;-64
2021/01/24 04:52:25;;;;;;;3.03;2.70;;;2.90;99.90;;;;;;5053725;28;20503;-63
2021/01/24 04:54:52;;;;;;;3.60;2.83;;;2.90;99.90;;;;;;5053845;28;20499;-63
2021/01/24 04:57:19;;;;;;;2.70;2.50;;;2.90;99.90;;;;;;5053575;28;20191;-64
2021/01/24 04:59:45;;;;;;;2.87;2.43;;;2.90;99.90;;;;;;5053834;28;20491;-63
2021/01/24 05:02:13;;;;;;;2.40;2.10;;;2.90;99.90;;;;;;5052539;28;20528;-63
2021/01/24 05:04:38;;;;;;;3.23;2.93;;;2.80;99.90;;;;;;5053320;28;20716;-63
2021/01/24 05:07:04;;;;;;;2.80;2.60;;;2.80;99.90;;;;;;5053711;28;20433;-63
2021/01/24 05:09:30;;;;;;;3.00;2.80;;;2.80;99.90;;;;;;5053701;28;20178;-63
2021/01/24 05:11:55;;;;;;;2.53;2.33;;;2.90;99.90;;;;;;5053604;28;20528;-65
2021/01/24 05:14:24;;;;;;;2.93;2.53;;;3.00;99.90;;;;;;5053283;28;20173;-63
2021/01/24 05:16:52;;;;;;;3.30;3.00;;;3.00;99.90;;;;;;5053362;28;20682;-63
2021/01/24 05:19:21;;;;;;;3.67;2.40;;;3.00;99.90;;;;;;5053560;28;20905;-64
2021/01/24 05:21:47;;;;;;;3.20;2.67;;;3.00;99.90;;;;;;5053466;28;20417;-63
2021/01/24 05:24:15;;;;;;;5.60;2.93;;;3.00;99.90;;;;;;5053403;28;20512;-63
2021/01/24 05:26:49;;;;;;;3.00;2.70;;;2.90;99.90;;;;;;5052969;28;20490;-64
2021/01/24 05:29:26;;;;;;;2.73;2.33;;;2.80;99.90;;;;;;5053106;28;20385;-64
2021/01/24 05:31:53;;;;;;;2.93;2.70;;;2.70;99.90;;;;;;5053138;28;20903;-63
2021/01/24 05:34:26;;;;;;;3.30;2.80;;;2.60;99.90;;;;;;5053278;28;20429;-63
2021/01/24 05:36:52;;;;;;;4.63;3.30;;;2.70;99.90;;;;;;5052936;28;20421;-64
2021/01/24 05:39:18;;;;;;;3.20;2.90;;;2.70;99.90;;;;;;5052998;28;20466;-63
2021/01/24 05:41:52;;;;;;;3.73;3.03;;;2.80;99.90;;;;;;5052810;28;20789;-64
2021/01/24 05:44:19;;;;;;;3.80;3.00;;;2.80;99.90;;;;;;5052659;28;20917;-64
2021/01/24 05:46:46;;;;;;;3.83;3.43;;;2.70;99.90;;;;;;5052804;28;20856;-64
2021/01/24 05:49:14;;;;;;;3.83;3.43;;;2.70;99.90;;;;;;5052915;28;20400;-64
2021/01/24 05:51:40;;;;;;;3.87;3.37;;;2.80;99.90;;;;;;5052774;28;20570;-64
2021/01/24 05:54:05;;;;;;;3.50;3.20;;;2.70;99.90;;;;;;5052863;28;20437;-64
2021/01/24 05:56:31;;;;;;;3.37;3.13;;;2.50;99.90;;;;;;5053325;28;20506;-64
2021/01/24 05:59:01;;;;;;;14.03;3.30;;;2.60;99.90;;;;;;5053100;28;20174;-64
2021/01/24 06:01:28;;;;;;;3.80;3.40;;;2.50;99.90;;;;;;5053096;28;20619;-64
2021/01/24 06:03:55;;;;;;;4.00;3.13;;;2.50;99.90;;;;;;5052826;28;20416;-64
2021/01/24 06:06:21;;;;;;;3.93;3.50;;;2.70;99.90;;;;;;5052583;28;20447;-64
2021/01/24 06:08:47;;;;;;;3.03;2.73;;;2.70;99.90;;;;;;5052765;28;20409;-64
2021/01/24 06:11:15;;;;;;;3.43;3.03;;;2.70;99.90;;;;;;5052749;28;20183;-64
2021/01/24 06:13:44;;;;;;;3.50;3.20;;;2.60;99.90;;;;;;5052735;28;20409;-64
2021/01/24 06:16:20;;;;;;;3.63;3.33;;;2.60;99.90;;;;;;5052783;28;20422;-64
2021/01/24 06:18:52;;;;;;;4.20;3.80;;;2.60;99.90;;;;;;5051841;28;20468;-64
2021/01/24 06:21:24;;;;;;;4.30;3.50;;;2.60;99.90;;;;;;5052007;28;20936;-64
2021/01/24 06:23:58;;;;;;;4.43;4.03;;;2.50;99.90;;;;;;5051922;28;20423;-64
2021/01/24 06:26:27;;;;;;;3.60;3.10;;;2.60;99.90;;;;;;5051781;28;20440;-64
2021/01/24 06:29:00;;;;;;;4.10;3.80;;;2.50;99.90;;;;;;5051613;28;20970;-64
2021/01/24 06:31:26;;;;;;;5.47;3.80;;;2.50;99.90;;;;;;5051866;28;20872;-64
2021/01/24 06:33:52;;;;;;;4.00;3.50;;;2.60;99.90;;;;;;5051497;28;20409;-64
2021/01/24 06:36:19;;;;;;;5.27;3.70;;;2.50;99.90;;;;;;5051765;28;20412;-64
2021/01/24 06:38:54;;;;;;;4.97;4.20;;;2.50;99.90;;;;;;5051737;28;21006;-64
2021/01/24 06:41:44;;;;;;;4.70;4.30;;;2.50;99.90;;;;;;5051495;28;20377;-64
2021/01/24 06:44:35;;;;;;;4.20;3.60;;;2.50;99.90;;;;;;5051593;28;20773;-64
2021/01/24 06:47:03;;;;;;;4.20;3.80;;;2.50;99.90;;;;;;5051240;28;20465;-64
2021/01/24 06:49:40;;;;;;;4.00;3.60;;;2.50;99.90;;;;;;5051560;28;20767;-63
2021/01/24 06:52:35;;;;;;;6.00;4.47;;;2.40;99.90;;;;;;5054090;28;20405;-64
2021/01/24 06:55:26;;;;;;;3.97;3.50;;;2.30;99.90;;;;;;5041072;28;20425;-64
2021/01/24 06:57:52;;;;;;;4.40;3.70;;;2.30;99.90;;;;;;5054818;28;20424;-64
2021/01/24 07:00:21;;;;;;;4.10;3.60;;;2.30;99.90;;;;;;5054626;28;20408;-62
2021/01/24 07:02:48;;;;;;;3.50;3.20;;;2.30;99.90;;;;;;5054875;28;20164;-62
2021/01/24 07:05:22;;;;;;;3.47;3.17;;;2.30;99.90;;;;;;5054389;28;20456;-62
2021/01/24 07:07:49;;;;;;;3.73;3.30;;;2.20;99.90;;;;;;5054488;28;20457;-63
2021/01/24 07:10:36;;;;;;;3.33;3.03;;;2.30;99.90;;;;;;5036771;28;20401;-63
2021/01/24 07:13:24;;;;;;;2.80;2.60;;;2.30;99.90;;;;;;5054407;28;20800;-62
2021/01/24 07:15:56;;;;;;;4.90;3.00;;;2.40;99.90;;;;;;5054620;28;20397;-63
2021/01/24 07:18:22;;;;;;;3.87;3.47;;;2.50;99.90;;;;;;5035051;28;570694;-62
2021/01/24 07:20:51;;;;;;;4.47;3.53;;;2.50;99.90;;;;;;5055701;28;20177;-62
2021/01/24 07:23:18;;;;;;;4.77;4.20;;;2.60;99.90;;;;;;5055609;28;20413;-61
2021/01/24 07:25:44;;;;;;;4.23;3.93;;;2.50;99.90;;;;;;5055278;28;20456;-62
2021/01/24 07:28:11;;;;;;;4.90;3.20;;;2.50;99.90;;;;;;5055235;28;20436;-61
2021/01/24 07:30:40;;;;;;;7.20;4.47;;;2.20;99.90;;;;;;5055322;28;20401;-62
2021/01/24 07:33:07;;;;;;;3.97;3.60;;;2.20;99.90;;;;;;5037472;28;20447;-62
2021/01/24 07:35:37;;;;;;;3.70;3.30;;;2.30;99.90;;;;;;5055111;28;20449;-63
2021/01/24 07:38:04;;;;;;;5.43;3.77;;;2.20;99.90;;;;;;5055078;28;20897;-63
2021/01/24 07:40:30;;;;;;;3.80;3.50;;;2.30;99.90;;;;;;5055383;28;20763;-63
2021/01/24 07:42:57;;;;;;;4.20;3.40;;;2.30;99.90;;;;;;5037342;28;20409;-63
2021/01/24 07:45:26;;;;;;;3.97;3.50;;;2.30;99.90;;;;;;5054944;28;20538;-63
2021/01/24 07:47:54;;;;;;;4.00;3.13;;;2.50;99.90;;;;;;5055065;28;20449;-63
2021/01/24 07:50:20;;;;;;;4.40;3.20;;;2.40;99.90;;;;;;5037365;28;20495;-62
2021/01/24 07:52:49;;;;;;;3.20;2.70;;;2.30;99.90;;;;;;5055320;28;20440;-62
2021/01/24 07:55:15;;;;;;;4.13;3.00;;;2.30;99.90;;;;;;5053960;28;20179;-63
2021/01/24 07:57:40;;;;;;;4.67;3.10;;;2.30;99.90;;;;;;5054821;28;20463;-62
2021/01/24 08:00:07;;;;;;;3.50;2.73;;;2.30;99.90;;;;;;5054896;28;20167;-63
2021/01/24 08:02:33;;;;;;;3.67;2.87;;;2.40;99.90;;;;;;5054683;28;20475;-63
2021/01/24 08:05:05;;;;;;;5.00;3.20;;;2.50;99.90;;;;;;5054174;28;20467;-63
2021/01/24 08:07:31;;;;;;;3.37;2.70;;;2.50;99.90;;;;;;5036520;28;20939;-63
2021/01/24 08:09:57;;;;;;;3.83;2.57;;;2.50;99.90;;;;;;5054837;28;20416;-63
2021/01/24 08:12:25;;;;;;;4.10;3.17;;;2.40;99.90;;;;;;5054490;28;20405;-63
2021/01/24 08:14:52;;;;;;;3.60;2.53;;;2.50;99.90;;;;;;5054369;28;20491;-63
2021/01/24 08:17:19;;;;;;;2.53;2.33;;;2.50;99.90;;;;;;5054273;28;20452;-63
2021/01/24 08:19:46;;;;;;;4.47;2.90;;;2.50;99.90;;;;;;5054348;28;20547;-63
2021/01/24 08:22:12;;;;;;;4.60;2.83;;;2.50;99.90;;;;;;5054540;28;20438;-63
2021/01/24 08:24:39;;;;;;;3.20;2.90;;;2.60;99.90;;;;;;5054238;28;20468;-63
2021/01/24 08:27:05;;;;;;;3.23;2.50;;;2.50;99.90;;;;;;5054315;28;20466;-63
2021/01/24 08:29:35;;;;;;;4.50;2.70;;;2.50;99.90;;;;;;5054765;28;20406;-63
2021/01/24 08:32:05;;;;;;;4.60;3.20;;;2.30;99.90;;;;;;5055182;28;20739;-62
2021/01/24 08:34:32;;;;;;;4.27;2.60;;;2.40;99.90;;;;;;5053892;28;20780;-63
2021/01/24 08:36:59;;;;;;;3.30;3.00;;;2.50;99.90;;;;;;5053985;28;20425;-63
2021/01/24 08:39:26;;;;;;;4.20;2.73;;;2.70;99.90;;;;;;5053927;28;20420;-63
2021/01/24 08:41:53;;;;;;;3.93;2.93;;;2.60;99.90;;;;;;5054516;28;20412;-64
2021/01/24 08:44:19;;;;;;;4.10;2.67;;;2.60;99.90;;;;;;5056940;28;20459;-64
2021/01/24 08:46:46;;;;;;;3.63;2.80;;;2.70;99.90;;;;;;5053755;28;20486;-64
2021/01/24 08:49:13;;;;;;;5.93;2.90;;;2.70;99.90;;;;;;5054036;28;20401;-63
2021/01/24 08:51:53;;;;;;;3.30;2.73;;;3.00;99.90;;;;;;5035755;28;20492;-64
2021/01/24 08:54:40;;;;;;;3.20;2.80;;;3.30;99.90;;;;;;5054080;28;20847;-64
2021/01/24 08:57:13;;;;;;;3.17;2.87;;;3.40;99.90;;;;;;5053594;28;20994;-64
2021/01/24 09:00:00;;;;;;;4.60;2.90;;;3.30;99.90;;;;;;5053651;28;20817;-64
2021/01/24 09:02:34;;;;;;;3.27;2.97;;;3.40;99.90;;;;;;5053180;28;20424;-63
2021/01/24 09:05:03;;;;;;;3.13;2.83;;;3.30;99.90;;;;;;5053440;28;20396;-63
2021/01/24 09:07:55;;;;;;;6.70;3.60;;;3.50;99.90;;;;;;5053384;28;20997;-64
2021/01/24 09:10:27;;;;;;;3.23;2.77;;;3.40;99.90;;;;;;5050833;28;20410;-64
2021/01/24 09:12:58;;;;;;;3.87;2.87;;;3.50;99.90;;;;;;5053684;28;20390;-64
2021/01/24 09:15:25;;;;;;;4.53;3.43;;;3.60;99.90;;;;;;5054181;28;20404;-63
2021/01/24 09:17:52;;;;;;;4.20;3.80;;;3.60;99.90;;;;;;5082929;22;20499;-62
2021/01/24 09:20:22;;;;;;;4.03;3.50;;;3.40;99.90;;;;;;5073937;28;20876;-59
2021/01/24 09:22:48;;;;;;;3.67;3.37;;;3.40;99.90;;;;;;5073568;28;20396;-60
2021/01/24 09:25:15;;;;;;;3.33;3.03;;;3.60;99.90;;;;;;5073447;28;20444;-61
2021/01/24 09:27:40;;;;;;;4.83;3.80;;;3.50;99.90;;;;;;5078761;28;20481;-62
2021/01/24 09:30:09;;;;;;;3.90;3.23;;;3.60;99.90;;;;;;5094182;28;20809;-62
2021/01/24 09:32:34;;;;;;;3.50;3.20;;;3.60;99.90;;;;;;5094128;28;20317;-62
2021/01/24 09:35:00;;;;;;;4.17;3.60;;;3.40;99.90;;;;;;5094130;28;20907;-62
2021/01/24 09:37:25;;;;;;;3.60;3.30;;;3.40;99.90;;;;;;5093922;28;20177;-61
2021/01/24 09:39:51;;;;;;;4.10;3.60;;;3.60;99.90;;;;;;5094311;28;20168;-62
2021/01/24 09:42:17;;;;;;;3.90;3.60;;;3.60;99.90;;;;;;5093593;28;20162;-62
2021/01/24 09:44:43;;;;;;;4.00;3.60;;;3.60;99.90;;;;;;5094093;28;20625;-61
2021/01/24 09:47:09;;;;;;;6.57;4.40;;;3.80;99.90;;;;;;5094008;28;20242;-61
2021/01/24 09:49:34;;;;;;;4.53;3.57;;;3.70;99.90;;;;;;5095784;28;20426;-62
2021/01/24 09:52:00;;;;;;;7.60;6.70;;;3.60;99.90;;;;;;5095724;28;20895;-62
2021/01/24 09:54:26;;;;;;;4.67;3.83;;;3.50;99.90;;;;;;5095307;28;20176;-62
2021/01/24 09:56:51;;;;;;;5.27;3.80;;;3.60;99.90;;;;;;5094861;28;20690;-62
2021/01/24 09:59:17;;;;;;;4.40;4.00;;;3.50;99.90;;;;;;5093597;28;20247;-62
2021/01/24 10:01:43;;;;;;;8.70;4.87;;;3.50;99.90;;;;;;5093494;28;20181;-62
2021/01/24 10:04:09;;;;;;;3.80;3.50;;;3.50;99.90;;;;;;5095259;28;20403;-61
2021/01/24 10:06:35;;;;;;;4.20;3.90;;;3.60;99.90;;;;;;5095397;28;20539;-61
2021/01/24 10:09:01;;;;;;;5.13;4.40;;;3.70;99.90;;;;;;5094788;28;20185;-61
2021/01/24 10:11:27;;;;;;;5.63;3.30;;;3.90;99.90;;;;;;5096420;28;20970;-61
2021/01/24 10:13:52;;;;;;;4.50;4.10;;;3.90;99.90;;;;;;5095211;28;20442;-61
2021/01/24 10:16:18;;;;;;;5.70;3.53;;;3.90;99.90;;;;;;5094333;28;20501;-62
2021/01/24 10:18:44;;;;;;;3.33;2.83;;;4.10;99.90;;;;;;5093140;28;20212;-62
2021/01/24 10:21:10;;;;;;;4.23;3.00;;;4.20;99.90;;;;;;5093136;28;20169;-62
2021/01/24 10:23:35;;;;;;;5.50;3.40;;;3.90;99.90;;;;;;5093334;28;20169;-61
2021/01/24 10:26:01;;;;;;;4.07;3.37;;;4.00;99.90;;;;;;5093007;28;20275;-61
2021/01/24 10:28:27;;;;;;;3.33;2.83;;;4.00;99.90;;;;;;5093589;28;20185;-61
2021/01/24 10:30:54;;;;;;;3.20;2.90;;;3.80;99.90;;;;;;5096966;28;20949;-61
2021/01/24 10:33:21;;;;;;;3.13;2.70;;;3.90;99.90;;;;;;5096996;28;20402;-63
2021/01/24 10:35:48;;;;;;;3.33;2.80;;;4.00;99.90;;;;;;5078671;28;20414;-62
2021/01/24 10:38:14;;;;;;;3.80;2.43;;;3.80;99.90;;;;;;5097116;28;20445;-62
2021/01/24 10:40:40;;;;;;;3.30;3.00;;;3.90;99.90;;;;;;5096867;28;20445;-62
2021/01/24 10:43:07;;;;;;;3.80;2.87;;;3.90;99.90;;;;;;5096613;28;20406;-61
2021/01/24 10:45:34;;;;;;;4.10;2.90;;;3.90;99.90;;;;;;5096543;28;20189;-61
2021/01/24 10:48:01;;;;;;;3.77;2.70;;;4.00;99.90;;;;;;5089304;28;20504;-62
2021/01/24 10:50:27;;;;;;;3.10;2.80;;;4.00;99.90;;;;;;5058690;28;20483;-62
2021/01/24 10:52:54;;;;;;;2.60;2.40;;;4.20;99.90;;;;;;5062829;28;20462;-59
2021/01/24 10:55:20;;;;;;;2.83;2.63;;;4.20;99.90;;;;;;5097034;28;20480;-59
2021/01/24 10:57:45;;;;;;;3.17;2.20;;;4.40;99.90;;;;;;5096673;28;20803;-62
2021/01/24 11:00:12;;;;;;;3.03;2.67;;;4.40;99.90;;;;;;5096824;28;20399;-59
2021/01/24 11:02:37;;;;;;;3.60;2.90;;;4.50;99.90;;;;;;5096348;28;20634;-60
2021/01/24 11:05:04;;;;;;;4.37;2.43;;;4.60;99.90;;;;;;5096951;28;20415;-62
2021/01/24 11:07:30;;;;;;;2.90;2.10;;;4.70;99.90;;;;;;5096215;28;20226;-61
2021/01/24 11:09:56;;;;;;;3.43;2.27;;;4.80;99.90;;;;;;5097320;28;20468;-60
2021/01/24 11:12:22;;;;;;;1.93;1.83;;;4.90;99.90;;;;;;5096560;28;20265;-61
2021/01/24 11:14:49;;;;;;;2.50;2.30;;;5.10;99.90;;;;;;5078007;28;20169;-61
2021/01/24 11:17:15;;;;;;;5.03;2.63;;;5.30;99.90;;;;;;5095829;28;20396;-62
2021/01/24 11:19:40;;;;;;;3.87;2.00;;;5.10;99.90;;;;;;5096926;28;20386;-62
2021/01/24 11:22:06;;;;;;;2.07;1.87;;;5.30;99.90;;;;;;5096419;28;20169;-60
2021/01/24 11:24:31;;;;;;;2.10;1.83;;;5.50;99.90;;;;;;5096141;28;20275;-62
2021/01/24 11:26:58;;;;;;;2.17;1.97;;;5.30;99.90;;;;;;5096433;28;20196;-61
2021/01/24 11:29:24;;;;;;;2.17;1.97;;;5.20;99.90;;;;;;5095729;28;20185;-62
2021/01/24 11:31:50;;;;;;;2.17;2.07;;;5.20;99.90;;;;;;5095669;28;20400;-62
2021/01/24 11:34:16;;;;;;;2.27;1.93;;;5.10;99.90;;;;;;5095631;28;20399;-62
2021/01/24 11:36:41;;;;;;;1.60;1.43;;;5.00;99.90;;;;;;5095603;28;20395;-62
2021/01/24 11:39:07;;;;;;;2.70;1.97;;;4.90;99.90;;;;;;5096325;28;20189;-62
2021/01/24 11:41:33;;;;;;;1.87;1.77;;;5.00;99.90;;;;;;5077388;28;20169;-62
2021/01/24 11:43:59;;;;;;;2.90;2.30;;;5.10;99.90;;;;;;5095388;28;20184;-62
2021/01/24 11:46:24;;;;;;;2.67;2.00;;;5.00;99.90;;;;;;5077007;28;20615;-62
2021/01/24 11:48:50;;;;;;;2.00;1.73;;;5.30;99.90;;;;;;5095231;28;20424;-62
2021/01/24 11:51:15;;;;;;;2.60;2.40;;;5.50;99.90;;;;;;5095708;28;20165;-62
2021/01/24 11:53:41;;;;;;;2.37;2.00;;;5.50;99.90;;;;;;5095214;28;20161;-63
2021/01/24 11:56:07;;;;;;;2.47;2.27;;;6.10;99.90;;;;;;5095633;28;20162;-62
2021/01/24 11:58:33;;;;;;;2.00;1.90;;;6.00;99.90;;;;;;5076955;28;20189;-61
2021/01/24 12:00:59;;;;;;;2.10;2.00;;;5.70;99.90;;;;;;5095427;28;20403;-61
2021/01/24 12:03:24;;;;;;;2.97;1.70;;;5.80;99.90;;;;;;5095131;28;20404;-63
2021/01/24 12:05:50;;;;;;;2.10;1.83;;;5.90;99.90;;;;;;5095097;28;20193;-62
2021/01/24 12:08:15;;;;;;;2.30;2.10;;;6.10;99.90;;;;;;5095037;28;20289;-63
2021/01/24 12:10:42;;;;;;;2.57;2.17;;;5.90;99.90;;;;;;5095426;28;20162;-62
2021/01/24 12:13:08;;;;;;;2.03;1.83;;;5.90;99.90;;;;;;5076959;28;20165;-62
2021/01/24 12:15:34;;;;;;;2.07;1.73;;;5.50;99.90;;;;;;5094848;28;20754;-62
2021/01/24 12:17:59;;;;;;;3.43;1.90;;;5.30;99.90;;;;;;5094704;28;20236;-61
2021/01/24 12:20:25;;;;;;;4.00;2.27;;;5.30;99.90;;;;;;5094948;28;20176;-62
2021/01/24 12:22:51;;;;;;;2.63;2.33;;;5.30;99.90;;;;;;5094919;28;20176;-61
2021/01/24 12:25:17;;;;;;;2.90;2.20;;;5.30;99.90;;;;;;5095026;28;20447;-62
2021/01/24 12:27:42;;;;;;;2.93;2.63;;;5.60;99.90;;;;;;5094648;28;20185;-62
2021/01/24 12:30:09;;;;;;;2.73;2.53;;;5.60;99.90;;;;;;5094703;28;20224;-61
2021/01/24 12:32:34;;;;;;;3.97;2.70;;;5.30;99.90;;;;;;5095230;28;20169;-62
2021/01/24 12:35:00;;;;;;;5.57;3.03;;;5.10;99.90;;;;;;5076394;28;20403;-62
2021/01/24 12:37:26;;;;;;;2.77;2.50;;;5.20;99.90;;;;;;5094117;28;20415;-61
2021/01/24 12:39:51;;;;;;;2.90;2.60;;;5.00;99.90;;;;;;5094457;28;20197;-62
2021/01/24 12:42:17;;;;;;;2.53;2.17;;;5.00;99.90;;;;;;5094247;28;20534;-62
2021/01/24 12:44:43;;;;;;;3.97;3.10;;;5.10;99.90;;;;;;5094283;28;20175;-62
2021/01/24 12:47:09;;;;;;;2.47;2.17;;;5.20;99.90;;;;;;5096518;28;20457;-62
2021/01/24 12:49:36;;;;;;;4.67;2.93;;;5.30;99.90;;;;;;5075991;28;20415;-62
2021/01/24 12:52:02;;;;;;;5.03;2.30;;;5.30;99.90;;;;;;5093624;28;20456;-62
2021/01/24 12:54:27;;;;;;;2.67;2.30;;;5.10;99.90;;;;;;5094160;28;20395;-59
2021/01/24 12:56:53;;;;;;;2.57;2.20;;;4.90;99.90;;;;;;5094018;28;20403;-61
2021/01/24 12:59:18;;;;;;;3.43;2.17;;;4.80;99.90;;;;;;5093863;28;20185;-63
2021/01/24 13:01:44;;;;;;;2.43;2.23;;;4.80;99.90;;;;;;5094165;28;20568;-60